createdAt,value
2018-12-02T00:00:37.233Z,14.10
2018-12-02T00:03:07.031Z,14.80
2018-12-02T00:05:35.070Z,14.17
2018-12-02T00:08:03.886Z,15.27
2018-12-02T00:10:31.848Z,16.03
2018-12-02T00:12:59.780Z,15.60
2018-12-02T00:15:28.885Z,16.17
2018-12-02T00:17:58.887Z,16.60
2018-12-02T00:20:26.976Z,16.70
2018-12-02T00:22:55.032Z,16.57
2018-12-02T00:25:23.308Z,15.27
2018-12-02T00:27:53.274Z,15.57
2018-12-02T00:30:22.537Z,16.37
2018-12-02T00:32:50.581Z,17.03
2018-12-02T00:35:18.784Z,16.13
2018-12-02T00:37:48.391Z,16.13
2018-12-02T00:40:16.627Z,15.17
2018-12-02T00:42:55.421Z,22.03
2018-12-02T00:45:25.735Z,18.27
2018-12-02T00:47:53.733Z,20.73
2018-12-02T00:50:22.344Z,17.20
2018-12-02T00:52:51.825Z,16.37
2018-12-02T00:55:36.409Z,19.73
2018-12-02T00:58:04.766Z,17.30
2018-12-02T01:00:32.703Z,17.37
2018-12-02T01:03:15.323Z,18.17
2018-12-02T01:05:43.261Z,16.67
2018-12-02T01:08:11.277Z,17.67
2018-12-02T01:10:39.410Z,17.33
2018-12-02T01:13:09.629Z,18.27
2018-12-02T01:15:39.555Z,16.97
2018-12-02T01:18:08.043Z,18.03
2018-12-02T01:20:36.981Z,18.90
2018-12-02T01:23:05.625Z,18.87
2018-12-02T01:25:33.886Z,16.90
2018-12-02T01:28:02.093Z,19.10
2018-12-02T01:30:30.064Z,17.60
2018-12-02T01:32:58.258Z,19.30
2018-12-02T01:35:26.324Z,19.47
2018-12-02T01:37:54.284Z,19.03
2018-12-02T01:40:23.167Z,20.03
2018-12-02T01:42:52.253Z,19.90
2018-12-02T01:45:24.239Z,20.20
2018-12-02T01:47:53.071Z,18.57
2018-12-02T01:50:22.033Z,19.63
2018-12-02T01:52:51.049Z,19.77
2018-12-02T01:55:19.131Z,21.10
2018-12-02T01:57:47.213Z,18.07
2018-12-02T02:00:17.998Z,18.53
2018-12-02T02:02:47.050Z,18.70
2018-12-02T02:05:16.130Z,20.23
2018-12-02T02:07:44.303Z,18.93
2018-12-02T02:10:14.072Z,19.37
2018-12-02T02:12:42.377Z,17.93
2018-12-02T02:15:11.997Z,20.27
2018-12-02T02:17:40.405Z,21.10
2018-12-02T02:20:12.302Z,19.57
2018-12-02T02:22:40.351Z,19.07
2018-12-02T02:25:09.611Z,19.50
2018-12-02T02:27:37.887Z,18.00
2018-12-02T02:30:19.368Z,17.57
2018-12-02T02:32:47.318Z,18.33
2018-12-02T02:35:16.064Z,16.93
2018-12-02T02:37:44.154Z,20.33
2018-12-02T02:40:17.156Z,17.83
2018-12-02T02:42:45.300Z,18.00
2018-12-02T02:45:13.926Z,18.23
2018-12-02T02:47:41.909Z,17.80
2018-12-02T02:50:13.589Z,17.00
2018-12-02T02:52:42.761Z,17.43
2018-12-02T02:55:10.781Z,16.83
2018-12-02T02:57:38.827Z,17.37
2018-12-02T03:00:12.685Z,17.87
2018-12-02T03:02:40.753Z,16.63
2018-12-02T03:05:09.504Z,17.87
2018-12-02T03:07:37.719Z,16.97
2018-12-02T03:10:09.843Z,18.83
2018-12-02T03:12:38.327Z,17.90
2018-12-02T03:15:10.570Z,17.10
2018-12-02T03:17:38.669Z,16.53
2018-12-02T03:20:09.881Z,16.03
2018-12-02T03:22:37.985Z,15.93
2018-12-02T03:25:11.094Z,18.10
2018-12-02T03:27:39.056Z,17.57
2018-12-02T03:30:16.207Z,18.00
2018-12-02T03:32:44.227Z,18.33
2018-12-02T03:35:28.559Z,16.40
2018-12-02T03:37:56.641Z,17.97
2018-12-02T03:40:27.068Z,18.10
2018-12-02T03:42:55.375Z,18.60
2018-12-02T03:45:24.482Z,17.70
2018-12-02T03:47:52.526Z,17.63
2018-12-02T03:50:21.880Z,17.63
2018-12-02T03:52:49.959Z,17.77
2018-12-02T03:55:17.997Z,17.87
2018-12-02T03:57:46.155Z,16.73
2018-12-02T04:00:19.085Z,15.80
2018-12-02T04:02:47.197Z,16.27
2018-12-02T04:05:16.748Z,16.07
2018-12-02T04:07:44.690Z,15.10
2018-12-02T04:10:13.632Z,15.73
2018-12-02T04:12:41.728Z,14.83
2018-12-02T04:15:12.128Z,13.60
2018-12-02T04:17:40.178Z,15.83
2018-12-02T04:20:10.723Z,14.53
2018-12-02T04:22:38.960Z,14.73
2018-12-02T04:25:09.379Z,15.23
2018-12-02T04:27:37.464Z,15.10
2018-12-02T04:30:08.728Z,13.43
2018-12-02T04:32:36.721Z,11.33
2018-12-02T04:35:06.013Z,11.23
2018-12-02T04:37:33.894Z,11.70
2018-12-02T04:40:01.785Z,12.27
2018-12-02T04:42:29.798Z,11.43
2018-12-02T04:44:57.869Z,10.83
2018-12-02T04:47:25.897Z,10.50
2018-12-02T04:49:53.963Z,10.50
2018-12-02T04:52:22.155Z,10.50
2018-12-02T04:54:50.083Z,8.70
2018-12-02T04:57:18.021Z,11.07
2018-12-02T04:59:47.318Z,10.50
2018-12-02T05:02:14.074Z,9.93
2018-12-02T05:04:42.230Z,9.77
2018-12-02T05:07:10.283Z,10.87
2018-12-02T05:09:38.372Z,10.03
2018-12-02T05:12:06.414Z,10.30
2018-12-02T05:14:34.494Z,10.50
2018-12-02T05:17:02.739Z,10.83
2018-12-02T05:19:30.791Z,12.17
2018-12-02T05:21:58.750Z,10.30
2018-12-02T05:24:26.709Z,11.23
2018-12-02T05:26:54.688Z,12.17
2018-12-02T05:29:22.965Z,13.20
2018-12-02T05:31:51.225Z,11.93
2018-12-02T05:34:19.285Z,13.67
2018-12-02T05:36:47.844Z,13.40
2018-12-02T05:39:16.027Z,13.27
2018-12-02T05:41:49.699Z,12.67
2018-12-02T05:44:17.724Z,13.97
2018-12-02T05:46:45.705Z,13.73
2018-12-02T05:49:13.793Z,14.20
2018-12-02T05:51:41.909Z,14.60
2018-12-02T05:54:09.947Z,14.40
2018-12-02T05:56:37.947Z,14.67
2018-12-02T05:59:06.052Z,15.13
2018-12-02T06:01:34.025Z,14.87
2018-12-02T06:04:02.070Z,14.13
2018-12-02T06:06:30.192Z,15.00
2018-12-02T06:08:58.214Z,13.87
2018-12-02T06:11:26.311Z,15.83
2018-12-02T06:13:54.366Z,15.83
2018-12-02T06:16:22.574Z,14.03
2018-12-02T06:18:51.023Z,14.43
2018-12-02T06:21:19.351Z,13.87
2018-12-02T06:23:47.813Z,14.03
2018-12-02T06:26:15.853Z,12.00
2018-12-02T06:28:43.816Z,14.23
2018-12-02T06:31:12.330Z,14.30
2018-12-02T06:33:40.221Z,14.77
2018-12-02T06:36:08.688Z,12.77
2018-12-02T06:38:36.616Z,14.50
2018-12-02T06:41:04.981Z,14.93
2018-12-02T06:43:33.086Z,13.40
2018-12-02T06:46:00.992Z,15.23
2018-12-02T06:48:28.957Z,14.67
2018-12-02T06:50:56.927Z,15.30
2018-12-02T06:53:24.879Z,14.67
2018-12-02T06:56:14.228Z,13.93
2018-12-02T06:59:56.213Z,13.03
2018-12-02T07:03:40.188Z,16.47
2018-12-02T07:06:08.187Z,14.13
2018-12-02T07:08:36.129Z,16.27
2018-12-02T07:11:04.128Z,15.03
2018-12-02T07:13:32.094Z,15.60
2018-12-02T07:16:00.050Z,16.70
2018-12-02T07:18:32.145Z,15.90
2018-12-02T07:21:04.803Z,12.60
2018-12-02T07:23:35.611Z,15.47
2018-12-02T07:26:08.928Z,13.37
2018-12-02T07:28:36.905Z,14.57
2018-12-02T07:31:05.804Z,14.53
2018-12-02T07:33:33.863Z,12.60
2018-12-02T07:36:01.886Z,14.47
2018-12-02T07:38:35.879Z,12.67
2018-12-02T07:41:05.217Z,13.57
2018-12-02T07:43:33.141Z,15.03
2018-12-02T07:46:01.255Z,14.30
2018-12-02T07:48:29.249Z,15.17
2018-12-02T07:50:57.282Z,14.43
2018-12-02T07:53:25.331Z,13.10
2018-12-02T07:55:53.443Z,13.43
2018-12-02T07:58:21.693Z,11.60
2018-12-02T08:00:50.538Z,12.63
2018-12-02T08:03:18.755Z,14.67
2018-12-02T08:05:47.792Z,12.07
2018-12-02T08:08:15.762Z,10.43
2018-12-02T08:10:43.928Z,9.77
2018-12-02T08:13:12.016Z,10.20
2018-12-02T08:15:39.953Z,9.93
2018-12-02T08:18:08.049Z,8.37
2018-12-02T08:20:36.234Z,9.57
2018-12-02T08:23:04.653Z,9.60
2018-12-02T08:25:32.864Z,9.93
2018-12-02T08:28:00.793Z,9.53
2018-12-02T08:30:28.697Z,8.70
2018-12-02T08:32:57.193Z,9.37
2018-12-02T08:35:27.860Z,10.73
2018-12-02T08:37:57.425Z,10.03
2018-12-02T08:40:25.413Z,8.70
2018-12-02T08:42:53.475Z,10.57
2018-12-02T08:45:21.618Z,11.30
2018-12-02T08:47:49.625Z,9.43
2018-12-02T08:50:18.529Z,10.87
2018-12-02T08:52:47.590Z,9.60
2018-12-02T08:55:16.823Z,9.20
2018-12-02T08:57:45.254Z,9.57
2018-12-02T09:00:16.947Z,9.50
2018-12-02T09:02:47.650Z,9.43
2018-12-02T09:05:15.920Z,8.77
2018-12-02T09:11:14.947Z,8.37
2018-12-02T09:13:42.933Z,7.97
2018-12-02T09:16:10.987Z,9.07
2018-12-02T09:18:38.985Z,8.60
2018-12-02T09:21:07.063Z,9.03
2018-12-02T09:23:35.154Z,9.13
2018-12-02T09:26:04.187Z,9.43
2018-12-02T09:28:32.266Z,9.03
2018-12-02T09:31:00.257Z,8.63
2018-12-02T09:33:28.157Z,8.70
2018-12-02T09:35:56.124Z,7.77
2018-12-02T09:38:24.001Z,9.43
2018-12-02T09:40:52.092Z,7.00
2018-12-02T09:43:20.428Z,7.63
2018-12-02T09:45:48.557Z,6.20
2018-12-02T09:48:16.552Z,6.63
2018-12-02T09:50:44.536Z,7.33
2018-12-02T09:53:12.608Z,8.27
2018-12-02T09:55:45.230Z,7.17
2018-12-02T09:58:20.523Z,8.03
2018-12-02T10:00:48.544Z,6.20
2018-12-02T10:03:16.798Z,6.43
2018-12-02T10:05:44.806Z,6.90
2018-12-02T10:08:12.869Z,6.13
2018-12-02T10:10:41.078Z,6.30
2018-12-02T10:13:13.149Z,5.70
2018-12-02T10:15:42.255Z,6.03
2018-12-02T10:18:10.371Z,5.30
2018-12-02T10:20:38.625Z,6.40
2018-12-02T10:23:06.995Z,5.93
2018-12-02T10:25:34.957Z,6.90
2018-12-02T10:28:02.919Z,6.47
2018-12-02T10:30:31.593Z,7.30
2018-12-02T10:32:59.608Z,6.60
2018-12-02T10:35:27.729Z,5.97
2018-12-02T10:37:55.667Z,6.53
2018-12-02T10:40:24.754Z,7.73
2018-12-02T10:42:52.767Z,6.27
2018-12-02T10:45:27.340Z,6.23
2018-12-02T10:47:58.566Z,7.03
2018-12-02T10:50:28.692Z,6.00
2018-12-02T10:52:57.720Z,6.50
2018-12-02T10:55:32.853Z,6.47
2018-12-02T10:58:00.993Z,6.33
2018-12-02T11:00:34.662Z,6.27
2018-12-02T11:03:02.585Z,6.93
2018-12-02T11:05:30.798Z,6.87
2018-12-02T11:07:58.685Z,7.30
2018-12-02T11:10:26.556Z,7.00
2018-12-02T11:12:54.483Z,8.10
2018-12-02T11:15:22.760Z,8.57
2018-12-02T11:17:50.770Z,8.77
2018-12-02T11:20:18.913Z,8.47
2018-12-02T11:22:46.937Z,8.83
2018-12-02T11:25:15.140Z,8.10
2018-12-02T11:27:43.192Z,9.93
2018-12-02T11:30:14.504Z,8.80
2018-12-02T11:32:44.064Z,10.10
2018-12-02T11:35:13.911Z,10.73
2018-12-02T11:37:41.988Z,9.50
2018-12-02T11:40:15.908Z,10.03
2018-12-02T11:42:43.918Z,8.93
2018-12-02T11:45:13.229Z,9.83
2018-12-02T11:47:45.762Z,9.77
2018-12-02T11:50:17.998Z,9.67
2018-12-02T11:52:46.587Z,10.43
2018-12-02T11:55:16.050Z,8.87
2018-12-02T11:57:44.086Z,9.17
2018-12-02T12:00:14.132Z,9.90
2018-12-02T12:02:42.809Z,9.83
2018-12-02T12:05:13.125Z,9.93
2018-12-02T12:07:41.898Z,9.83
2018-12-02T12:10:15.670Z,10.10
2018-12-02T12:12:43.747Z,10.40
2018-12-02T12:15:13.032Z,11.03
2018-12-02T12:17:41.054Z,10.57
2018-12-02T12:20:11.949Z,12.27
2018-12-02T12:22:40.351Z,11.10
2018-12-02T12:25:09.274Z,11.30
2018-12-02T12:27:37.186Z,10.33
2018-12-02T12:30:08.925Z,11.23
2018-12-02T12:32:36.852Z,10.13
2018-12-02T12:35:07.681Z,9.97
2018-12-02T12:37:35.696Z,11.23
2018-12-02T12:40:05.460Z,9.40
2018-12-02T12:42:33.765Z,10.83
2018-12-02T12:45:01.833Z,9.73
2018-12-02T12:47:29.814Z,10.53
2018-12-02T12:49:57.905Z,10.77
2018-12-02T12:52:25.806Z,10.60
2018-12-02T12:54:53.947Z,9.40
2018-12-02T12:57:22.063Z,10.77
2018-12-02T12:59:50.180Z,11.10
2018-12-02T13:02:18.153Z,11.27
2018-12-02T13:04:46.173Z,10.90
2018-12-02T13:07:14.254Z,12.60
2018-12-02T13:09:42.490Z,11.30
2018-12-02T13:12:10.682Z,12.80
2018-12-02T13:14:38.671Z,11.73
2018-12-02T13:17:06.881Z,13.27
2018-12-02T13:19:34.906Z,12.47
2018-12-02T13:22:03.130Z,12.93
2018-12-02T13:24:31.192Z,13.67
2018-12-02T13:26:59.949Z,13.03
2018-12-02T13:29:28.267Z,13.97
2018-12-02T13:31:56.412Z,14.83
2018-12-02T13:34:24.415Z,15.00
2018-12-02T13:36:52.601Z,14.47
2018-12-02T13:39:20.718Z,14.47
2018-12-02T13:41:48.666Z,16.10
2018-12-02T13:44:16.656Z,15.77
2018-12-02T13:46:44.756Z,15.37
2018-12-02T13:49:12.767Z,16.40
2018-12-02T13:51:40.765Z,16.27
2018-12-02T13:54:14.414Z,18.10
2018-12-02T13:56:42.666Z,16.73
2018-12-02T13:59:10.797Z,17.80
2018-12-02T14:01:38.813Z,18.40
2018-12-02T14:04:06.968Z,19.43
2018-12-02T14:06:35.022Z,19.53
2018-12-02T14:09:03.214Z,18.70
2018-12-02T14:11:31.254Z,20.00
2018-12-02T14:14:00.606Z,20.90
2018-12-02T14:16:40.426Z,20.73
2018-12-02T14:19:10.317Z,21.03
2018-12-02T14:21:38.263Z,22.10
2018-12-02T14:24:08.340Z,21.17
2018-12-02T14:26:37.282Z,20.57
2018-12-02T14:29:16.313Z,20.63
2018-12-02T14:31:47.201Z,22.40
2018-12-02T14:34:15.237Z,23.20
2018-12-02T14:36:43.345Z,22.53
2018-12-02T14:39:12.162Z,22.57
2018-12-02T14:41:40.133Z,24.77
2018-12-02T14:44:08.507Z,21.43
2018-12-02T14:46:36.860Z,25.27
2018-12-02T14:49:05.867Z,25.03
2018-12-02T14:51:34.011Z,25.30
2018-12-02T14:54:02.010Z,24.73
2018-12-02T14:56:30.200Z,23.73
2018-12-02T14:58:58.303Z,25.70
2018-12-02T15:01:26.330Z,25.53
2018-12-02T15:03:54.414Z,25.10
2018-12-02T15:06:22.566Z,22.60
2018-12-02T15:08:50.584Z,25.67
2018-12-02T15:11:18.565Z,26.27
2018-12-02T15:13:47.338Z,24.80
2018-12-02T15:16:15.306Z,25.87
2018-12-02T15:18:43.300Z,26.00
2018-12-02T15:21:11.203Z,27.83
2018-12-02T15:23:39.162Z,26.73
2018-12-02T15:26:07.183Z,23.53
2018-12-02T15:28:35.155Z,26.13
2018-12-02T15:31:03.237Z,21.60
2018-12-02T15:33:31.284Z,26.20
2018-12-02T15:35:59.321Z,23.70
2018-12-02T15:38:27.412Z,23.33
2018-12-02T15:40:55.533Z,22.17
2018-12-02T15:43:23.562Z,24.33
2018-12-02T15:45:51.683Z,23.53
2018-12-02T15:48:19.841Z,19.57
2018-12-02T15:50:50.567Z,19.80
2018-12-02T15:53:16.200Z,17.60
2018-12-02T15:55:44.306Z,19.07
2018-12-02T15:58:13.489Z,18.13
2018-12-02T16:00:43.845Z,16.20
2018-12-02T16:03:11.814Z,17.23
2018-12-02T16:05:39.996Z,20.23
2018-12-02T16:08:08.266Z,17.70
2018-12-02T16:10:36.770Z,16.07
2018-12-02T16:13:06.689Z,16.80
2018-12-02T16:15:35.030Z,14.63
2018-12-02T16:18:03.395Z,15.80
2018-12-02T16:20:34.448Z,14.80
2018-12-02T16:23:02.472Z,16.43
2018-12-02T16:25:30.514Z,15.47
2018-12-02T16:27:58.712Z,13.13
2018-12-02T16:30:26.767Z,15.07
2018-12-02T16:32:55.414Z,15.73
2018-12-02T16:35:24.537Z,14.83
2018-12-02T16:37:54.968Z,13.63
2018-12-02T16:40:24.982Z,15.77
2018-12-02T16:42:55.149Z,15.17
2018-12-02T16:45:23.285Z,14.07
2018-12-02T16:47:53.440Z,15.07
2018-12-02T16:50:30.861Z,15.13
2018-12-02T16:53:01.409Z,13.60
2018-12-02T16:55:31.348Z,11.97
2018-12-02T16:58:10.054Z,11.43
2018-12-02T17:01:00.728Z,11.50
2018-12-02T17:03:28.913Z,13.23
2018-12-02T17:05:57.194Z,11.67
2018-12-02T17:08:25.471Z,11.10
2018-12-02T17:10:53.655Z,13.67
2018-12-02T17:13:21.754Z,10.73
2018-12-02T17:15:49.988Z,17.20
2018-12-02T17:18:18.142Z,16.57
2018-12-02T17:20:46.170Z,12.00
2018-12-02T17:23:14.413Z,10.93
2018-12-02T17:25:42.843Z,10.13
2018-12-02T17:28:10.839Z,10.23
2018-12-02T17:30:47.669Z,12.10
2018-12-02T17:33:16.013Z,11.43
2018-12-02T17:35:45.201Z,11.40
2018-12-02T17:38:14.014Z,10.60
2018-12-02T17:40:42.538Z,12.07
2018-12-02T17:43:11.898Z,11.30
2018-12-02T17:45:40.050Z,10.17
2018-12-02T17:48:08.086Z,10.70
2018-12-02T17:51:38.899Z,9.83
2018-12-02T17:54:07.349Z,11.23
2018-12-02T17:56:35.262Z,9.20
2018-12-02T17:59:03.731Z,10.40
2018-12-02T18:01:32.031Z,10.60
2018-12-02T18:04:00.158Z,9.87
2018-12-02T18:06:28.410Z,11.23
2018-12-02T18:08:56.571Z,11.57
2018-12-02T18:11:25.440Z,12.53
2018-12-02T18:13:53.714Z,12.90
2018-12-02T18:16:23.987Z,12.40
2018-12-02T18:18:52.665Z,13.37
2018-12-02T18:21:21.851Z,13.23
2018-12-02T18:23:50.012Z,14.27
2018-12-02T18:26:19.120Z,13.70
2018-12-02T18:28:47.578Z,12.17
2018-12-02T18:31:15.771Z,15.63
2018-12-02T18:33:44.552Z,16.27
2018-12-02T18:36:17.112Z,13.30
2018-12-02T18:38:48.235Z,13.93
2018-12-02T18:41:23.423Z,15.67
2018-12-02T18:43:51.636Z,15.07
2018-12-02T18:46:20.544Z,16.70
2018-12-02T18:48:48.928Z,15.93
2018-12-02T18:51:17.578Z,15.47
2018-12-02T18:53:46.163Z,16.53
2018-12-02T18:56:16.605Z,16.33
2018-12-02T18:58:43.104Z,16.33
2018-12-02T19:01:11.295Z,15.67
2018-12-02T19:03:39.519Z,16.20
2018-12-02T19:06:08.633Z,17.13
2018-12-02T19:08:38.093Z,15.73
2018-12-02T19:11:07.189Z,17.50
2018-12-02T19:13:35.474Z,15.67
2018-12-02T19:16:03.916Z,17.23
2018-12-02T19:18:32.168Z,15.07
2018-12-02T19:21:03.877Z,14.50
2018-12-02T19:23:33.179Z,16.53
2018-12-02T19:26:01.402Z,12.43
2018-12-02T19:28:29.417Z,15.70
2018-12-02T19:30:57.818Z,13.27
2018-12-02T19:33:26.239Z,15.17
2018-12-02T19:35:57.816Z,12.63
2018-12-02T19:38:26.091Z,14.07
2018-12-02T19:40:54.459Z,13.90
2018-12-02T19:43:23.077Z,13.27
2018-12-02T19:45:52.244Z,12.07
2018-12-02T19:48:20.413Z,15.37
2018-12-02T19:50:49.745Z,13.53
2018-12-02T19:53:18.327Z,14.00
2018-12-02T19:55:46.348Z,13.57
2018-12-02T19:58:14.668Z,11.87
2018-12-02T20:00:44.616Z,15.53
2018-12-02T20:03:13.686Z,11.83
2018-12-02T20:05:43.252Z,14.67
2018-12-02T20:08:13.406Z,13.47
2018-12-02T20:10:43.233Z,14.07
2018-12-02T20:13:13.561Z,12.47
2018-12-02T20:15:47.371Z,14.57
2018-12-02T20:18:15.624Z,13.83
2018-12-02T20:20:49.278Z,14.83
2018-12-02T20:23:24.342Z,16.03
2018-12-02T20:28:39.583Z,13.77
2018-12-02T20:31:10.745Z,15.57
2018-12-02T20:33:38.778Z,17.57
2018-12-02T20:36:07.222Z,15.53
2018-12-02T20:38:35.262Z,17.23
2018-12-02T20:41:03.420Z,17.57
2018-12-02T20:43:31.419Z,17.43
2018-12-02T20:45:59.534Z,17.40
2018-12-02T20:48:27.907Z,18.63
2018-12-02T20:50:55.963Z,20.43
2018-12-02T20:53:24.257Z,19.20
2018-12-02T20:55:52.550Z,19.17
2018-12-02T20:58:20.968Z,20.03
2018-12-02T21:00:49.147Z,20.50
2018-12-02T21:03:22.925Z,21.13
2018-12-02T21:06:03.641Z,18.77
2018-12-02T21:08:32.388Z,19.60
2018-12-02T21:11:01.228Z,17.50
2018-12-02T21:13:30.264Z,17.87
2018-12-02T21:15:58.938Z,19.13
2018-12-02T21:18:27.144Z,18.70
2018-12-02T21:20:55.698Z,18.90
2018-12-02T21:23:24.007Z,18.07
2018-12-02T21:25:52.680Z,19.30
2018-12-02T21:28:33.664Z,19.33
2018-12-02T21:31:01.831Z,20.07
2018-12-02T21:33:30.007Z,20.83
2018-12-02T21:35:58.141Z,18.97
2018-12-02T21:38:26.486Z,21.27
2018-12-02T21:40:54.835Z,19.30
2018-12-02T21:43:23.212Z,16.27
2018-12-02T21:45:51.291Z,20.57
2018-12-02T21:48:20.517Z,19.20
2018-12-02T21:50:50.559Z,20.87
2018-12-02T21:53:18.693Z,22.57
2018-12-02T21:55:46.993Z,20.43
2018-12-02T21:58:15.160Z,18.10
2018-12-02T22:00:44.259Z,22.03
2018-12-02T22:03:14.001Z,20.57
2018-12-02T22:05:42.239Z,21.47
2018-12-02T22:08:10.609Z,25.13
2018-12-02T22:10:39.010Z,24.43
2018-12-02T22:13:07.262Z,24.20
2018-12-02T22:15:35.319Z,20.47
2018-12-02T22:18:03.412Z,22.03
2018-12-02T22:20:31.416Z,20.00
2018-12-02T22:22:59.447Z,23.87
2018-12-02T22:25:27.474Z,23.57
2018-12-02T22:27:56.101Z,21.97
2018-12-02T22:30:24.869Z,21.67
2018-12-02T22:32:52.945Z,23.43
2018-12-02T22:35:21.324Z,25.67
2018-12-02T22:37:49.659Z,23.17
2018-12-02T22:40:20.904Z,23.73
2018-12-02T22:42:50.311Z,24.43
2018-12-02T22:45:21.579Z,27.10
2018-12-02T22:47:49.776Z,27.87
2018-12-02T22:50:18.752Z,25.43
2018-12-02T22:52:49.210Z,28.93
2018-12-02T22:55:17.327Z,26.03
2018-12-02T22:57:45.953Z,25.50
2018-12-02T23:00:21.717Z,27.10
2018-12-02T23:02:57.747Z,27.33
2018-12-02T23:05:25.779Z,27.73
2018-12-02T23:07:53.849Z,25.27
2018-12-02T23:10:22.960Z,26.40
2018-12-02T23:12:51.445Z,27.73
2018-12-02T23:15:19.856Z,27.33
2018-12-02T23:17:47.975Z,25.77
2018-12-02T23:20:16.653Z,28.37
2018-12-02T23:22:44.850Z,28.90
2018-12-02T23:25:13.983Z,30.87
2018-12-02T23:27:42.274Z,30.07
2018-12-02T23:30:17.841Z,29.13
2018-12-02T23:32:46.634Z,29.20
2018-12-02T23:35:16.439Z,31.43
2018-12-02T23:37:44.749Z,30.03
2018-12-02T23:40:16.170Z,27.27
2018-12-02T23:42:44.738Z,27.60
2018-12-02T23:45:13.736Z,29.33
2018-12-02T23:47:42.054Z,29.80
2018-12-02T23:50:11.857Z,32.27
2018-12-02T23:52:40.008Z,28.33
2018-12-02T23:55:10.964Z,31.80
2018-12-02T23:57:39.705Z,30.07
